Time;durP1;ratioP1;P1;durP2;ratioP2;P2;SDS_P1;SDS_P2;PMS_P1;PMS_P2;Temp;Humidity;BMP_temperature;BMP_pressure;BME280_temperature;BME280_humidity;BME280_pressure;Samples;Min_cycle;Max_cycle;Signal;HPM_P1;HPM_P2
2023/07/05 04:01:59;;;;;;;0.70;0.60;;;21.20;87.10;;;;;;5383303;23;20520;-72
2023/07/05 04:04:27;;;;;;;0.60;0.10;;;21.10;94.20;;;;;;4972892;28;20485;-72
2023/07/05 04:06:55;;;;;;;0.60;0.20;;;21.00;91.30;;;;;;4972880;28;20448;-71
2023/07/05 04:09:23;;;;;;;0.60;0.20;;;21.00;96.50;;;;;;4973089;28;20449;-71
2023/07/05 04:11:51;;;;;;;0.60;0.20;;;20.80;95.20;;;;;;4972598;28;20492;-72
2023/07/05 04:14:19;;;;;;;0.60;0.10;;;20.50;99.90;;;;;;4994553;23;20864;-75
2023/07/05 04:16:47;;;;;;;0.60;0.20;;;20.20;99.90;;;;;;4974236;28;20442;-75
2023/07/05 04:19:17;;;;;;;1.53;1.13;;;20.20;99.90;;;;;;4974760;28;20504;-75
2023/07/05 04:21:44;;;;;;;0.60;0.20;;;20.40;99.90;;;;;;4976838;28;20446;-75
2023/07/05 04:24:12;;;;;;;0.70;0.33;;;20.40;99.90;;;;;;4978945;28;20462;-75
2023/07/05 04:26:40;;;;;;;0.60;0.20;;;20.30;99.90;;;;;;4977705;28;20976;-75
2023/07/05 04:29:08;;;;;;;0.77;0.30;;;19.90;99.90;;;;;;4977961;28;20448;-74
2023/07/05 04:31:36;;;;;;;0.60;0.20;;;20.00;99.90;;;;;;4977523;28;20573;-74
2023/07/05 04:34:04;;;;;;;0.87;0.47;;;;;;;;;;4977577;28;20462;-74
2023/07/05 04:36:33;;;;;;;0.80;0.77;;;20.10;99.90;;;;;;4977468;28;20933;-74
2023/07/05 04:39:01;;;;;;;0.80;0.30;;;20.00;99.90;;;;;;4979040;28;20473;-75
2023/07/05 04:41:29;;;;;;;1.00;0.60;;;19.90;99.90;;;;;;4985561;28;20936;-74
2023/07/05 04:43:57;;;;;;;0.60;0.20;;;19.90;99.90;;;;;;4983352;28;20498;-74
2023/07/05 04:46:25;;;;;;;0.73;0.57;;;19.60;99.90;;;;;;4985163;28;20450;-74
2023/07/05 04:48:53;;;;;;;0.70;0.30;;;;;;;;;;4984574;28;20441;-74
2023/07/05 04:51:21;;;;;;;0.70;0.30;;;19.60;99.90;;;;;;4980006;28;20899;-69
2023/07/05 04:53:51;;;;;;;0.60;0.20;;;19.60;99.90;;;;;;4976654;28;20569;-70
2023/07/05 04:56:18;;;;;;;0.90;0.60;;;19.60;99.90;;;;;;4977968;28;20504;-70
2023/07/05 04:58:48;;;;;;;0.70;0.30;;;19.50;99.90;;;;;;4977368;28;20511;-71
2023/07/05 05:01:18;;;;;;;0.70;0.30;;;19.40;99.90;;;;;;4976305;28;20874;-70
2023/07/05 05:03:47;;;;;;;0.60;0.10;;;19.40;99.90;;;;;;4976240;28;20470;-74
2023/07/05 05:06:15;;;;;;;1.00;0.90;;;19.50;99.90;;;;;;4977533;28;20865;-71
2023/07/05 05:08:43;;;;;;;0.60;0.20;;;19.40;99.90;;;;;;4977596;28;20481;-71
2023/07/05 05:11:12;;;;;;;1.33;0.73;;;19.50;99.90;;;;;;4985708;28;20518;-71
2023/07/05 05:13:40;;;;;;;1.03;0.93;;;19.40;99.90;;;;;;4987460;28;20529;-70
2023/07/05 05:16:07;;;;;;;1.50;1.10;;;19.40;99.90;;;;;;4956514;29;20458;-70
2023/07/05 05:18:37;;;;;;;1.83;0.70;;;19.30;99.90;;;;;;4956493;29;20522;-70
2023/07/05 05:21:05;;;;;;;0.83;0.70;;;19.30;99.90;;;;;;4956666;29;20458;-70
2023/07/05 05:23:33;;;;;;;1.13;0.73;;;19.10;99.90;;;;;;4956188;29;20546;-70
2023/07/05 05:26:01;;;;;;;0.97;0.87;;;19.10;99.90;;;;;;4956400;29;20451;-71
2023/07/05 05:28:31;;;;;;;0.60;0.20;;;19.20;99.90;;;;;;4956069;29;20542;-69
2023/07/05 05:31:03;;;;;;;0.60;0.30;;;19.30;99.90;;;;;;4956215;29;20459;-70
2023/07/05 05:33:32;;;;;;;0.70;0.50;;;;;;;;;;4955060;28;20997;-70
2023/07/05 05:36:00;;;;;;;1.57;0.60;;;19.20;99.90;;;;;;4956274;29;20448;-69
2023/07/05 05:38:28;;;;;;;0.60;0.20;;;19.10;99.90;;;;;;4956703;29;20509;-72
2023/07/05 05:41:02;;;;;;;1.43;0.80;;;19.20;99.90;;;;;;4956279;29;20466;-71
2023/07/05 05:43:31;;;;;;;0.97;0.37;;;19.20;99.90;;;;;;4955860;29;20473;-70
2023/07/05 05:45:59;;;;;;;0.70;0.40;;;19.20;99.90;;;;;;4955536;29;20453;-71
2023/07/05 05:48:27;;;;;;;0.90;0.40;;;19.20;99.90;;;;;;4955952;29;20475;-72
2023/07/05 05:50:55;;;;;;;0.60;0.17;;;19.10;99.90;;;;;;4955884;29;20457;-71
2023/07/05 05:53:24;;;;;;;1.20;0.60;;;19.10;99.90;;;;;;4958929;28;20489;-71
2023/07/05 05:55:52;;;;;;;0.60;0.17;;;19.10;99.90;;;;;;4978751;28;20445;-72
2023/07/05 05:58:19;;;;;;;0.60;0.20;;;19.10;99.90;;;;;;4989002;28;20508;-71
2023/07/05 06:00:49;;;;;;;0.60;0.10;;;19.30;99.90;;;;;;4995329;28;20445;-70
2023/07/05 06:03:17;;;;;;;0.60;0.20;;;19.30;99.90;;;;;;4994142;28;21010;-72
2023/07/05 06:05:45;;;;;;;1.37;1.13;;;19.30;99.90;;;;;;4994554;28;20773;-71
2023/07/05 06:08:13;;;;;;;3.20;0.53;;;19.00;99.90;;;;;;4994633;28;20622;-72
2023/07/05 06:10:41;;;;;;;1.33;0.70;;;19.10;99.90;;;;;;4994272;28;20556;-71
2023/07/05 06:13:09;;;;;;;1.37;0.67;;;19.00;99.90;;;;;;4994089;28;20488;-70
2023/07/05 06:15:37;;;;;;;0.60;0.20;;;19.00;99.90;;;;;;4994529;28;20468;-70
2023/07/05 06:18:06;;;;;;;0.60;0.10;;;19.00;99.90;;;;;;4994097;28;20445;-71
2023/07/05 06:20:34;;;;;;;0.60;0.30;;;19.00;94.60;;;;;;4993861;28;20454;-70
2023/07/05 06:23:03;;;;;;;1.90;1.23;;;19.10;91.50;;;;;;4993718;28;20456;-70
2023/07/05 06:25:31;;;;;;;1.10;0.70;;;19.00;88.60;;;;;;4993852;28;20645;-71
2023/07/05 06:27:59;;;;;;;0.90;0.50;;;;;;;;;;4994147;28;20942;-70
2023/07/05 06:30:34;;;;;;;1.00;0.30;;;19.20;84.50;;;;;;4994379;28;20543;-72
2023/07/05 06:33:07;;;;;;;3.43;2.20;;;19.10;58.10;;;;;;4996414;28;20484;-71
2023/07/05 06:35:35;;;;;;;1.00;0.73;;;;;;;;;;4989989;28;20520;-70
2023/07/05 06:38:03;;;;;;;0.60;0.30;;;18.90;53.20;;;;;;4989982;28;20453;-71
2023/07/05 06:40:31;;;;;;;1.37;0.90;;;18.90;45.90;;;;;;4988653;28;20444;-71
2023/07/05 06:43:00;;;;;;;0.60;0.30;;;18.80;48.10;;;;;;4977119;28;20492;-71
2023/07/05 06:45:28;;;;;;;0.70;0.30;;;18.80;44.10;;;;;;4979600;28;20974;-71
2023/07/05 06:47:57;;;;;;;2.70;1.13;;;18.90;44.00;;;;;;4984676;28;20435;-72
2023/07/05 06:50:26;;;;;;;2.00;1.50;;;18.80;34.90;;;;;;4988981;28;20456;-71
2023/07/05 06:52:54;;;;;;;2.10;1.37;;;;;;;;;;4975661;28;20474;-72
2023/07/05 06:55:42;;;;;;;1.73;0.60;;;18.60;31.60;;;;;;4991087;28;20448;-74
2023/07/05 06:58:10;;;;;;;5.70;1.10;;;;;;;;;;4974772;28;20535;-73
2023/07/05 07:00:38;;;;;;;1.73;1.10;;;18.60;29.60;;;;;;4983783;28;20446;-73
2023/07/05 07:03:07;;;;;;;3.00;1.60;;;18.50;30.90;;;;;;4989565;28;20468;-72
2023/07/05 07:05:37;;;;;;;1.80;1.23;;;18.60;31.00;;;;;;4979782;28;20480;-72
2023/07/05 07:08:05;;;;;;;3.80;1.13;;;18.60;27.90;;;;;;4990128;28;20531;-72
2023/07/05 07:10:35;;;;;;;0.70;0.37;;;18.70;16.50;;;;;;4973192;28;20457;-72
2023/07/05 07:13:03;;;;;;;1.57;0.93;;;18.70;1.00;;;;;;4979484;28;21008;-74
2023/07/05 07:15:31;;;;;;;3.90;2.00;;;18.70;1.00;;;;;;4999323;28;20468;-72
2023/07/05 07:17:59;;;;;;;2.50;1.30;;;18.60;1.00;;;;;;5009242;28;20833;-73
2023/07/05 07:20:27;;;;;;;3.07;1.70;;;18.70;1.00;;;;;;4997774;28;20444;-73
2023/07/05 07:22:56;;;;;;;1.33;0.97;;;18.50;1.00;;;;;;5003979;28;21094;-73
2023/07/05 07:25:25;;;;;;;2.33;2.07;;;18.50;1.00;;;;;;5005859;28;20476;-72
2023/07/05 07:27:56;;;;;;;2.50;1.23;;;;;;;;;;4996968;28;20516;-72
2023/07/05 07:30:25;;;;;;;1.80;0.83;;;;;;;;;;5002647;28;20550;-72
2023/07/05 07:32:53;;;;;;;4.23;3.93;;;18.40;1.00;;;;;;4997073;28;20559;-74
2023/07/05 07:35:22;;;;;;;5.43;0.50;;;18.40;1.00;;;;;;5004007;28;20444;-73
2023/07/05 07:37:50;;;;;;;3.40;1.37;;;18.30;1.00;;;;;;5005406;28;20526;-73
2023/07/05 07:40:19;;;;;;;3.37;1.27;;;18.20;1.00;;;;;;4996434;28;20448;-73
2023/07/05 07:42:47;;;;;;;1.63;0.80;;;18.20;1.00;;;;;;5008356;28;20495;-74
2023/07/05 07:45:15;;;;;;;2.40;1.03;;;18.20;1.00;;;;;;4990327;28;20450;-73
2023/07/05 07:47:43;;;;;;;2.10;0.93;;;18.30;1.00;;;;;;4979030;28;20454;-74
2023/07/05 07:50:13;;;;;;;2.60;1.40;;;18.30;1.00;;;;;;5003441;28;20477;-73
2023/07/05 07:52:42;;;;;;;3.27;1.23;;;18.20;1.00;;;;;;5012255;28;20476;-73
2023/07/05 07:55:10;;;;;;;0.80;0.20;;;18.20;1.00;;;;;;5005639;28;20872;-72
2023/07/05 07:57:40;;;;;;;1.33;1.20;;;18.40;1.00;;;;;;5004985;28;20525;-73
2023/07/05 08:00:09;;;;;;;0.73;0.47;;;18.30;1.00;;;;;;5011349;28;20848;-74
2023/07/05 08:02:37;;;;;;;0.60;0.20;;;18.30;1.00;;;;;;4998652;28;20535;-74
2023/07/05 08:05:13;;;;;;;0.73;0.70;;;18.30;1.00;;;;;;4981581;28;20459;-73
2023/07/05 08:07:42;;;;;;;2.40;0.97;;;18.20;1.00;;;;;;4996268;28;20445;-73
2023/07/05 08:10:11;;;;;;;2.80;1.07;;;18.20;1.00;;;;;;4998405;28;20455;-73
2023/07/05 08:12:40;;;;;;;1.30;0.90;;;18.20;1.00;;;;;;5014321;28;20444;-75
2023/07/05 08:15:09;;;;;;;1.33;0.60;;;18.20;1.00;;;;;;4980578;28;20487;-72
2023/07/05 08:17:38;;;;;;;1.73;0.60;;;18.30;1.00;;;;;;4996818;28;20455;-73
2023/07/05 08:20:07;;;;;;;1.10;0.83;;;18.40;1.00;;;;;;4996212;28;20481;-73
2023/07/05 08:22:35;;;;;;;1.70;1.60;;;18.30;1.00;;;;;;5003993;28;20455;-72
2023/07/05 08:25:04;;;;;;;2.07;1.00;;;18.00;1.00;;;;;;5005633;28;20452;-73
2023/07/05 08:27:32;;;;;;;1.77;0.73;;;;;;;;;;4996764;28;20458;-73
2023/07/05 08:30:01;;;;;;;0.60;0.23;;;17.80;1.00;;;;;;4996604;28;20450;-71
2023/07/05 08:32:29;;;;;;;3.33;1.17;;;18.00;1.00;;;;;;4995719;28;20443;-72
2023/07/05 08:35:01;;;;;;;1.03;0.53;;;18.00;1.00;;;;;;4996026;28;21000;-72
2023/07/05 08:37:30;;;;;;;0.60;0.20;;;;;;;;;;4994710;28;20478;-71
2023/07/05 08:39:58;;;;;;;2.17;0.87;;;18.40;1.00;;;;;;4977263;28;20492;-72
2023/07/05 08:42:39;;;;;;;2.60;1.20;;;18.40;1.00;;;;;;4976457;28;20460;-73
2023/07/05 08:45:20;;;;;;;7.33;1.33;;;18.40;1.00;;;;;;5004970;28;20954;-70
2023/07/05 08:47:52;;;;;;;7.60;1.83;;;18.30;1.00;;;;;;4996364;28;20767;-73
2023/07/05 08:50:27;;;;;;;2.23;0.97;;;18.20;1.00;;;;;;4995568;28;20978;-72
2023/07/05 08:53:05;;;;;;;0.90;0.83;;;18.20;1.00;;;;;;4995654;28;20525;-72
2023/07/05 08:55:49;;;;;;;0.60;0.10;;;18.30;1.00;;;;;;4995949;28;20471;-73
2023/07/05 08:58:22;;;;;;;1.30;0.43;;;18.60;1.00;;;;;;5002289;28;20516;-73
2023/07/05 09:00:57;;;;;;;1.57;0.40;;;18.70;1.00;;;;;;5012130;28;20974;-73
2023/07/05 09:03:30;;;;;;;1.03;0.60;;;18.80;1.00;;;;;;5003858;28;20468;-72
2023/07/05 09:06:20;;;;;;;0.70;0.37;;;18.90;1.00;;;;;;4997553;28;20444;-71
2023/07/05 09:08:59;;;;;;;0.70;0.23;;;19.00;1.00;;;;;;4997200;28;20451;-72
2023/07/05 09:11:38;;;;;;;1.10;0.73;;;19.20;1.00;;;;;;5009802;28;20970;-75
2023/07/05 09:14:20;;;;;;;0.60;0.10;;;19.10;1.00;;;;;;5016754;28;20523;-71
2023/07/05 09:16:57;;;;;;;0.70;0.20;;;19.10;1.00;;;;;;4998950;28;20515;-71
2023/07/05 09:19:44;;;;;;;2.27;1.83;;;19.20;1.00;;;;;;4997857;28;20499;-71
2023/07/05 09:22:17;;;;;;;0.80;0.53;;;19.20;1.00;;;;;;4997398;28;20539;-70
2023/07/05 09:24:45;;;;;;;1.10;0.50;;;19.20;1.00;;;;;;4997592;28;20465;-70
2023/07/05 09:27:18;;;;;;;0.60;0.20;;;19.30;1.00;;;;;;4992290;28;20516;-69
2023/07/05 09:29:51;;;;;;;0.97;0.50;;;19.40;1.00;;;;;;4976264;28;20478;-70
2023/07/05 09:32:27;;;;;;;0.60;0.20;;;19.30;1.00;;;;;;4975235;28;20945;-71
2023/07/05 09:34:58;;;;;;;0.60;0.20;;;19.30;1.00;;;;;;4975811;28;20983;-70
2023/07/05 09:37:31;;;;;;;0.60;0.20;;;19.10;1.00;;;;;;4976574;28;20448;-71
2023/07/05 09:40:15;;;;;;;0.60;0.10;;;19.00;1.00;;;;;;4980912;28;20482;-70
2023/07/05 09:42:48;;;;;;;0.70;0.30;;;19.20;1.00;;;;;;4980584;28;20480;-70
2023/07/05 09:45:18;;;;;;;3.00;0.97;;;19.20;1.00;;;;;;4982167;28;20453;-70
2023/07/05 09:47:50;;;;;;;0.93;0.77;;;19.10;1.00;;;;;;4983140;28;20445;-70
2023/07/05 09:50:21;;;;;;;0.70;0.20;;;19.20;1.00;;;;;;4980116;28;20460;-71
2023/07/05 09:52:52;;;;;;;1.63;0.70;;;19.20;1.00;;;;;;4991632;28;20511;-70
2023/07/05 09:55:21;;;;;;;0.60;0.20;;;19.20;1.00;;;;;;4995064;28;20476;-70
2023/07/05 09:57:50;;;;;;;0.90;0.50;;;19.30;1.00;;;;;;4983022;28;20854;-70
2023/07/05 10:00:24;;;;;;;1.17;0.27;;;19.30;1.00;;;;;;4975347;28;20446;-70
2023/07/05 10:02:59;;;;;;;1.37;0.63;;;19.10;1.00;;;;;;4974497;28;20453;-70
2023/07/05 10:05:29;;;;;;;0.60;0.20;;;19.10;1.00;;;;;;4993848;28;20458;-69
2023/07/05 10:07:59;;;;;;;0.80;0.30;;;19.10;1.00;;;;;;4995131;28;20509;-70
2023/07/05 10:10:29;;;;;;;1.50;1.00;;;19.10;1.00;;;;;;4998204;28;20901;-70
2023/07/05 10:13:04;;;;;;;0.73;0.33;;;19.10;1.00;;;;;;5013799;28;21421;-70
2023/07/05 10:15:33;;;;;;;1.43;0.40;;;19.10;1.00;;;;;;5010155;28;21005;-70
2023/07/05 10:18:03;;;;;;;1.93;1.10;;;19.10;1.00;;;;;;5003460;23;20601;-73
2023/07/05 10:20:37;;;;;;;1.03;0.53;;;19.10;1.00;;;;;;4963484;28;20520;-72
2023/07/05 10:23:07;;;;;;;2.50;0.93;;;19.20;1.00;;;;;;4955214;29;21008;-73
2023/07/05 10:25:40;;;;;;;2.10;0.60;;;19.10;1.00;;;;;;4955544;29;20518;-74
2023/07/05 10:28:16;;;;;;;0.70;0.43;;;19.10;1.00;;;;;;4955667;28;20820;-73
2023/07/05 10:30:51;;;;;;;0.70;0.40;;;19.20;1.00;;;;;;4967726;28;20467;-73
2023/07/05 10:33:23;;;;;;;1.63;0.30;;;19.30;1.00;;;;;;4973758;28;20483;-74
2023/07/05 10:35:57;;;;;;;0.70;0.40;;;19.40;1.00;;;;;;4981500;28;20520;-75
2023/07/05 10:38:28;;;;;;;1.27;0.50;;;19.30;1.00;;;;;;4979791;28;20548;-74
2023/07/05 10:41:00;;;;;;;0.90;0.40;;;19.30;1.00;;;;;;4973280;28;20817;-74
2023/07/05 10:43:30;;;;;;;0.60;0.20;;;;;;;;;;4972504;28;20488;-74
2023/07/05 10:45:59;;;;;;;0.60;0.20;;;19.40;1.00;;;;;;4973997;28;20452;-73
2023/07/05 10:48:35;;;;;;;1.03;0.60;;;19.60;1.00;;;;;;4974218;28;20465;-73
2023/07/05 10:51:04;;;;;;;0.60;0.20;;;19.80;1.00;;;;;;4975704;28;20548;-74
2023/07/05 10:53:32;;;;;;;1.63;1.03;;;19.90;1.00;;;;;;4975601;28;20539;-73
2023/07/05 10:56:06;;;;;;;0.60;0.20;;;19.80;1.00;;;;;;4975209;28;20531;-72
2023/07/05 10:58:41;;;;;;;0.80;0.40;;;19.80;1.00;;;;;;4972170;28;20482;-73
2023/07/05 11:01:16;;;;;;;1.27;0.37;;;19.80;1.00;;;;;;4969159;28;20528;-73
2023/07/05 11:03:51;;;;;;;0.93;0.63;;;19.80;1.00;;;;;;4972592;28;20947;-72
2023/07/05 11:06:20;;;;;;;0.97;0.63;;;19.70;1.00;;;;;;4975251;28;20521;-72
2023/07/05 11:08:48;;;;;;;0.80;0.60;;;19.80;1.00;;;;;;4974475;28;20896;-72
2023/07/05 11:11:19;;;;;;;3.20;2.90;;;19.90;1.00;;;;;;4972973;28;20445;-73
2023/07/05 11:13:48;;;;;;;0.70;0.50;;;19.90;1.00;;;;;;4972958;28;20461;-75
2023/07/05 11:16:19;;;;;;;0.80;0.47;;;19.90;1.00;;;;;;4974342;28;20547;-73
2023/07/05 11:18:50;;;;;;;0.70;0.40;;;20.00;1.00;;;;;;4971822;28;20478;-72
2023/07/05 11:21:40;;;;;;;1.67;0.40;;;20.00;1.00;;;;;;4972112;28;20809;-73
2023/07/05 11:24:12;;;;;;;1.53;0.73;;;20.00;1.00;;;;;;4974363;28;20449;-72
2023/07/05 11:26:45;;;;;;;0.60;0.10;;;20.10;1.00;;;;;;4967252;28;20455;-74
2023/07/05 11:29:48;;;;;;;0.60;0.17;;;20.10;1.00;;;;;;4974345;28;20524;-73
2023/07/05 11:32:16;;;;;;;0.70;0.30;;;20.10;1.00;;;;;;4961950;28;20453;-73
2023/07/05 11:34:47;;;;;;;0.93;0.37;;;20.10;1.00;;;;;;4966829;28;21076;-73
2023/07/05 11:37:41;;;;;;;0.60;0.20;;;20.20;1.00;;;;;;4972035;28;20480;-73
2023/07/05 11:40:48;;;;;;;0.70;0.30;;;20.20;1.00;;;;;;4952987;28;20541;-72
2023/07/05 11:43:24;;;;;;;1.20;0.70;;;20.30;1.00;;;;;;4963381;28;20450;-72
2023/07/05 11:45:52;;;;;;;0.60;0.20;;;20.10;1.00;;;;;;4969714;28;20532;-73
2023/07/05 11:48:41;;;;;;;0.60;0.20;;;20.30;1.00;;;;;;4968005;28;20976;-73
2023/07/05 11:51:23;;;;;;;1.27;0.63;;;20.40;1.00;;;;;;4969048;28;20484;-72
2023/07/05 11:53:58;;;;;;;0.80;0.30;;;20.20;1.00;;;;;;4961634;28;20462;-72
2023/07/05 11:56:28;;;;;;;1.80;0.80;;;20.10;1.00;;;;;;4967726;28;20572;-73
2023/07/05 11:58:57;;;;;;;0.73;0.43;;;19.90;1.00;;;;;;4969955;28;20470;-72
2023/07/05 12:01:29;;;;;;;1.23;0.77;;;19.90;1.00;;;;;;4974621;28;20481;-73
2023/07/05 12:04:03;;;;;;;0.60;0.20;;;19.90;1.00;;;;;;4969972;28;20447;-74
2023/07/05 12:06:39;;;;;;;1.07;0.40;;;20.10;1.00;;;;;;4965597;28;20466;-73
2023/07/05 12:09:14;;;;;;;0.60;0.23;;;20.20;1.00;;;;;;4966111;28;20988;-73
2023/07/05 12:11:42;;;;;;;0.93;0.77;;;20.30;1.00;;;;;;4972895;28;20450;-72
2023/07/05 12:14:13;;;;;;;1.00;0.73;;;20.60;1.00;;;;;;4972774;28;20464;-72
2023/07/05 12:16:41;;;;;;;1.53;0.63;;;20.70;1.00;;;;;;4970210;28;20513;-73
2023/07/05 12:19:17;;;;;;;3.10;1.37;;;20.50;1.00;;;;;;4972511;28;21174;-72
2023/07/05 12:21:55;;;;;;;0.90;0.67;;;20.30;1.00;;;;;;4966871;28;20479;-73
2023/07/05 12:24:23;;;;;;;0.60;0.20;;;20.50;1.00;;;;;;4969201;28;20509;-71
2023/07/05 12:26:51;;;;;;;1.17;0.60;;;20.60;1.00;;;;;;4972251;28;20445;-74
2023/07/05 12:29:25;;;;;;;0.97;0.77;;;20.40;1.00;;;;;;4976215;28;20976;-73
2023/07/05 12:32:05;;;;;;;3.50;1.00;;;20.60;1.00;;;;;;4968650;28;20660;-73
2023/07/05 12:34:33;;;;;;;0.60;0.20;;;20.50;1.00;;;;;;4970243;28;20460;-73
2023/07/05 12:37:02;;;;;;;1.90;0.50;;;20.50;1.00;;;;;;4971247;28;20518;-72
2023/07/05 12:39:30;;;;;;;0.70;0.40;;;20.80;1.00;;;;;;4970468;28;20504;-74
2023/07/05 12:42:02;;;;;;;1.53;0.87;;;20.90;1.00;;;;;;4971349;28;20536;-73
2023/07/05 12:44:33;;;;;;;2.30;1.27;;;20.70;1.00;;;;;;4969916;28;20475;-73
2023/07/05 12:47:14;;;;;;;0.80;0.40;;;20.70;1.00;;;;;;4973905;28;20448;-76
2023/07/05 12:49:43;;;;;;;0.90;0.50;;;20.80;1.00;;;;;;4977548;28;20465;-72
2023/07/05 12:52:20;;;;;;;0.90;0.40;;;20.90;1.00;;;;;;4980681;28;20473;-73
2023/07/05 12:54:48;;;;;;;2.70;1.27;;;21.00;1.00;;;;;;4977080;28;20929;-73
2023/07/05 12:57:22;;;;;;;0.60;0.20;;;21.00;1.00;;;;;;4977142;28;20898;-74
2023/07/05 12:59:51;;;;;;;0.90;0.20;;;21.10;1.00;;;;;;4976850;28;20472;-73
2023/07/05 13:02:33;;;;;;;0.60;0.10;;;21.20;1.00;;;;;;4980060;28;20447;-73
2023/07/05 13:05:04;;;;;;;0.70;0.40;;;21.30;1.00;;;;;;4975351;28;20443;-73
2023/07/05 13:07:35;;;;;;;3.90;0.93;;;21.40;1.00;;;;;;4973693;28;20544;-70
2023/07/05 13:10:07;;;;;;;1.03;0.70;;;21.40;1.00;;;;;;4970495;28;20480;-71
2023/07/05 13:12:48;;;;;;;0.60;0.20;;;21.40;1.00;;;;;;4970145;28;20451;-73
2023/07/05 13:15:17;;;;;;;0.70;0.30;;;21.50;1.00;;;;;;4975025;28;20462;-73
2023/07/05 13:17:45;;;;;;;0.60;0.10;;;21.60;1.00;;;;;;4962605;28;20486;-75
2023/07/05 13:20:16;;;;;;;0.70;0.40;;;21.70;1.00;;;;;;4971982;28;20959;-75
2023/07/05 13:22:49;;;;;;;0.70;0.20;;;21.60;1.00;;;;;;4974835;28;20449;-75
2023/07/05 13:25:42;;;;;;;1.23;0.30;;;21.60;1.00;;;;;;4971622;28;20505;-74
2023/07/05 13:28:21;;;;;;;0.60;0.20;;;21.60;1.00;;;;;;4960289;28;20506;-74
2023/07/05 13:30:52;;;;;;;2.30;1.40;;;21.70;1.00;;;;;;4972393;28;20449;-74
2023/07/05 13:33:23;;;;;;;1.57;0.80;;;;;;;;;;4974176;28;20446;-73
2023/07/05 13:35:51;;;;;;;0.60;0.30;;;21.60;1.00;;;;;;4972796;28;20481;-74
2023/07/05 13:38:22;;;;;;;1.00;0.47;;;21.60;1.00;;;;;;4973557;28;20484;-74
2023/07/05 13:40:52;;;;;;;1.57;0.90;;;21.60;1.00;;;;;;4974551;28;20450;-72
2023/07/05 13:43:21;;;;;;;1.70;1.33;;;;;;;;;;4975075;28;20929;-75
2023/07/05 13:45:50;;;;;;;0.60;0.30;;;21.40;1.00;;;;;;4973992;28;20447;-75
2023/07/05 13:48:20;;;;;;;0.70;0.33;;;21.50;1.00;;;;;;4968579;28;20486;-74
2023/07/05 13:50:48;;;;;;;3.00;1.50;;;21.60;1.00;;;;;;4967189;28;20462;-74
2023/07/05 13:53:20;;;;;;;4.33;0.80;;;21.60;1.00;;;;;;4975803;28;20452;-74
2023/07/05 13:55:48;;;;;;;1.73;0.97;;;;;;;;;;4975526;28;20446;-72
2023/07/05 13:58:17;;;;;;;1.80;0.50;;;21.70;1.00;;;;;;4975709;28;21056;-74
2023/07/05 14:00:46;;;;;;;1.77;1.67;;;21.80;1.00;;;;;;4956695;29;20454;-74
2023/07/05 14:03:14;;;;;;;1.10;0.57;;;21.90;1.00;;;;;;4972360;28;20469;-74
2023/07/05 14:05:43;;;;;;;0.80;0.50;;;21.80;1.00;;;;;;4974181;28;20459;-74
2023/07/05 14:08:16;;;;;;;0.70;0.40;;;21.80;1.00;;;;;;4970257;28;20467;-72
2023/07/05 14:10:49;;;;;;;0.60;0.20;;;21.70;1.00;;;;;;4971664;28;20454;-74
2023/07/05 14:13:19;;;;;;;3.73;0.53;;;21.80;1.00;;;;;;4972738;28;20447;-72
2023/07/05 14:15:48;;;;;;;0.60;0.10;;;;;;;;;;4968346;28;20523;-74
2023/07/05 14:18:17;;;;;;;0.60;0.20;;;22.10;1.00;;;;;;4977408;28;20901;-73
2023/07/05 14:20:47;;;;;;;0.60;0.10;;;22.10;1.00;;;;;;4970010;28;21040;-74
2023/07/05 14:23:17;;;;;;;1.27;0.30;;;22.40;1.00;;;;;;4967671;28;20535;-73
2023/07/05 14:25:49;;;;;;;0.97;0.43;;;22.60;1.00;;;;;;4969805;28;20460;-74
2023/07/05 14:28:17;;;;;;;0.90;0.40;;;22.90;1.00;;;;;;4974037;28;20551;-74
2023/07/05 14:30:47;;;;;;;0.70;0.20;;;23.00;1.00;;;;;;4973000;28;20451;-74
2023/07/05 14:33:18;;;;;;;0.60;0.10;;;22.90;1.00;;;;;;4974433;28;20471;-73
2023/07/05 14:35:46;;;;;;;1.10;0.50;;;22.80;1.00;;;;;;4974739;28;20450;-71
2023/07/05 14:38:14;;;;;;;0.67;0.20;;;22.50;1.00;;;;;;4968035;28;20522;-74
2023/07/05 14:40:44;;;;;;;0.70;0.30;;;22.50;1.00;;;;;;4974738;28;20562;-73
2023/07/05 14:43:14;;;;;;;0.60;0.17;;;22.50;1.00;;;;;;4976760;28;20532;-76
2023/07/05 14:45:44;;;;;;;0.93;0.73;;;22.50;1.00;;;;;;4979420;28;20922;-74
2023/07/05 14:48:12;;;;;;;2.30;0.60;;;22.60;1.00;;;;;;4979284;28;20521;-72
2023/07/05 14:50:42;;;;;;;0.70;0.30;;;22.60;1.00;;;;;;4966702;28;20458;-72
2023/07/05 14:53:15;;;;;;;1.50;0.90;;;22.50;1.00;;;;;;4958409;29;20444;-71
2023/07/05 14:55:43;;;;;;;0.73;0.53;;;22.50;1.00;;;;;;4956065;29;20502;-73
2023/07/05 14:58:14;;;;;;;0.80;0.20;;;22.80;1.00;;;;;;4954654;29;20488;-74
2023/07/05 15:00:44;;;;;;;1.40;0.70;;;22.90;1.00;;;;;;4954279;29;20483;-74
2023/07/05 15:03:18;;;;;;;1.20;0.90;;;23.00;1.00;;;;;;4966649;28;20538;-72
2023/07/05 15:05:46;;;;;;;0.70;0.20;;;;;;;;;;4973638;28;20462;-72
2023/07/05 15:08:14;;;;;;;1.67;0.80;;;22.70;1.00;;;;;;4974307;28;20499;-72
2023/07/05 15:10:43;;;;;;;0.60;0.10;;;;;;;;;;4975004;28;20451;-73
2023/07/05 15:13:11;;;;;;;1.27;1.00;;;22.70;1.00;;;;;;4972433;28;20451;-74
2023/07/05 15:15:43;;;;;;;0.70;0.20;;;22.90;1.00;;;;;;4974601;28;20562;-74
2023/07/05 15:18:11;;;;;;;0.77;0.40;;;;;;;;;;4973794;28;21063;-73
2023/07/05 15:20:39;;;;;;;0.70;0.20;;;22.70;1.00;;;;;;4974241;28;20494;-73
2023/07/05 15:23:07;;;;;;;1.20;0.50;;;22.80;1.00;;;;;;4973740;28;20534;-72
2023/07/05 15:25:34;;;;;;;0.77;0.40;;;22.80;1.00;;;;;;4974190;28;20458;-73
2023/07/05 15:28:04;;;;;;;1.20;0.50;;;23.00;1.00;;;;;;4974332;28;20574;-74
2023/07/05 15:30:32;;;;;;;0.90;0.40;;;23.00;1.00;;;;;;4974980;28;20513;-75
2023/07/05 15:33:02;;;;;;;2.13;1.73;;;23.10;1.00;;;;;;4974763;28;20454;-73
2023/07/05 15:35:30;;;;;;;2.77;0.70;;;22.80;1.00;;;;;;4975286;28;20532;-72
2023/07/05 15:37:58;;;;;;;7.33;1.03;;;22.70;1.00;;;;;;4970874;28;20525;-75
2023/07/05 15:40:26;;;;;;;1.80;0.67;;;22.70;1.00;;;;;;4969476;28;20455;-74
2023/07/05 15:42:54;;;;;;;0.70;0.20;;;22.90;1.00;;;;;;4973764;28;20485;-74
2023/07/05 15:45:25;;;;;;;0.80;0.20;;;23.10;1.00;;;;;;4973745;28;20609;-73
2023/07/05 15:47:54;;;;;;;2.50;0.80;;;23.40;1.00;;;;;;4975263;28;20566;-72
2023/07/05 15:50:27;;;;;;;1.73;1.63;;;23.40;1.00;;;;;;4974210;28;20458;-72
2023/07/05 15:52:55;;;;;;;2.30;1.33;;;23.30;1.00;;;;;;4977027;28;20511;-76
2023/07/05 15:55:24;;;;;;;1.80;1.67;;;23.20;1.00;;;;;;4979780;28;20479;-75
2023/07/05 15:57:52;;;;;;;9.20;1.40;;;23.10;1.00;;;;;;4976644;28;20866;-74
2023/07/05 16:00:27;;;;;;;1.60;0.77;;;24.00;1.00;;;;;;4976641;28;20461;-73
2023/07/05 16:02:58;;;;;;;0.70;0.20;;;23.10;1.00;;;;;;4977358;28;20484;-73
2023/07/05 16:05:30;;;;;;;0.80;0.40;;;23.20;1.00;;;;;;4976672;28;20471;-75
2023/07/05 16:08:00;;;;;;;1.30;1.20;;;23.40;1.00;;;;;;4974666;28;20896;-74
2023/07/05 16:10:29;;;;;;;0.70;0.10;;;23.50;1.00;;;;;;4974983;28;20543;-72
2023/07/05 16:12:59;;;;;;;0.70;0.20;;;24.00;1.00;;;;;;4974479;28;20602;-71
2023/07/05 16:15:27;;;;;;;1.23;0.30;;;24.10;1.00;;;;;;4971991;28;20451;-71
2023/07/05 16:17:58;;;;;;;2.00;0.80;;;24.10;1.00;;;;;;4976182;28;20574;-74
2023/07/05 16:20:28;;;;;;;0.80;0.47;;;24.00;1.00;;;;;;5002281;23;20499;-71
2023/07/05 16:22:56;;;;;;;1.67;0.73;;;23.80;1.00;;;;;;4995395;28;20541;-71
2023/07/05 16:25:24;;;;;;;3.60;0.97;;;23.70;1.00;;;;;;4996254;28;20537;-71
2023/07/05 16:27:52;;;;;;;0.90;0.50;;;23.60;1.00;;;;;;4996444;28;20968;-71
2023/07/05 16:30:20;;;;;;;1.67;0.50;;;23.50;1.00;;;;;;4983515;28;20470;-70
2023/07/05 16:32:48;;;;;;;1.10;0.60;;;23.60;1.00;;;;;;4976686;28;20538;-71
2023/07/05 16:35:16;;;;;;;0.80;0.50;;;23.90;1.00;;;;;;4976029;28;20456;-72
2023/07/05 16:37:45;;;;;;;0.90;0.30;;;23.90;1.00;;;;;;4976128;28;20486;-71
2023/07/05 16:40:13;;;;;;;3.90;1.00;;;23.70;1.00;;;;;;4974877;28;20597;-70
2023/07/05 16:42:43;;;;;;;1.87;0.50;;;23.60;1.00;;;;;;4985106;28;20443;-71
2023/07/05 16:45:11;;;;;;;1.67;0.93;;;25.00;1.00;;;;;;4982177;28;20568;-71
2023/07/05 16:47:42;;;;;;;1.43;1.30;;;23.30;1.00;;;;;;4983674;28;20456;-71
2023/07/05 16:50:12;;;;;;;2.50;0.97;;;23.20;1.00;;;;;;4990075;28;20462;-71
2023/07/05 16:52:39;;;;;;;0.70;0.20;;;23.20;1.00;;;;;;4979706;28;20501;-70
2023/07/05 16:55:10;;;;;;;1.07;0.73;;;23.10;1.00;;;;;;4977955;28;20449;-71
2023/07/05 16:57:38;;;;;;;0.70;0.10;;;23.10;1.00;;;;;;4991301;28;20513;-71
2023/07/05 17:00:09;;;;;;;1.57;0.67;;;23.00;1.00;;;;;;4975919;28;20538;-70
2023/07/05 17:02:37;;;;;;;1.13;0.77;;;23.10;1.00;;;;;;4976772;28;20551;-70
2023/07/05 17:05:06;;;;;;;0.70;0.20;;;23.10;1.00;;;;;;4976378;28;20500;-71
2023/07/05 17:07:35;;;;;;;3.33;1.37;;;23.40;1.00;;;;;;4972044;28;20455;-70
2023/07/05 17:10:03;;;;;;;1.77;1.63;;;23.40;1.00;;;;;;4987790;28;20489;-70
2023/07/05 17:12:33;;;;;;;1.07;0.57;;;23.00;1.00;;;;;;4984954;28;20455;-69
2023/07/05 17:15:01;;;;;;;0.70;0.20;;;23.70;1.00;;;;;;4981722;28;20443;-69
2023/07/05 17:17:30;;;;;;;1.00;0.70;;;23.80;1.00;;;;;;4975643;28;20460;-71
2023/07/05 17:19:59;;;;;;;2.23;0.83;;;23.50;1.00;;;;;;4981472;28;20470;-72